Galena, Nevada Weather observations

Data are for 60 minute period ending nearest time listed.
 Day   Time    Ave.   Ave.  Ave.  Vector   Max.   Total    Solar   
  of    of     Air    Rel.  Wind   Wind    Wind  Precip.   Rad.    
Year   Day     Temp.  Hum.  Speed  Dir.    Gust                    
2026   (PST)    F      %     mph   deg.    mph     in.     W/m2    
------------------------------------------------------------------- 
 122   12:00   65.0    27    8.0   180     19.0    0.62     447  
 122   13:00   65.0    28    7.0   171     16.0    0.62     255  
 122   14:00   65.0    29    4.0   180     23.0    0.62     298  
 122   15:00   66.0    28    6.0   236     26.0    0.62     338  
 122   16:00   63.0    31    2.0   125     14.0    0.62     153  
 122   17:00   56.0    54    5.0    58     15.0    0.62      72  
 122   18:00   56.0    50    5.0   313     11.0    0.62      72  
 122   19:00   54.0    58    4.0     7     10.0    0.62       9  
 122   20:00   50.0    75    4.0   317     11.0    0.62       0  
 122   21:00   50.0    73    7.0   309     15.0    0.63       0  
 122   22:00   50.0    70    4.0   291     15.0    0.63       0  
 122   23:00   51.0    67    4.0   337     11.0    0.63       0  
 123    0:00   50.0    69    4.0   193     11.0    0.63       0  
 123    1:00   50.0    66    5.0   355      9.0    0.63       0  
 123    2:00   51.0    57    5.0   351      8.0    0.63       0  
 123    3:00   52.0    51    6.0   306      9.0    0.63       0  
 123    4:00   49.0    60    2.0   251     10.0    0.63       0  
 123    5:00   51.0    51    2.0   288      6.0    0.63       0  
 123    6:00   52.0    49    5.0   311      6.0    0.63      14  
 123    7:00   57.0    46    1.0   319      6.0    0.63     119  
 123    8:00   59.0    48    3.0    65      7.0    0.63     257  
 123    9:00   61.0    36    4.0    71     10.0    0.63     366  
 123   10:00   64.0    32    6.0    34     13.0    0.63     616  
 123   11:00   66.0    31    5.0   348     13.0    0.63     792  

Return to Galena, Nevada graphs page.


Western Regional Climate Center,wrcc@dri.edu